Oss, Netherlands
Current Conditions -  °F | °C
As of 5:38 AM on Thursday 23 Oct 2014 (Local Time) from EHVK Reporting Station
Haze Haze  
Wind Chill: 44°   Ceiling: 4500
Heat Index: 48°   Visibility: 5mi
Dew Point: 46°   Wind: 9mph
Humidity: 93%   Direction: 220°SW
Pressure: 30.15"   Gusts: NA
Location:  51.77°N, 5.52°E
Report Text: EHVK 230338Z AUTO 22008KT 8000 BR OVC045 09/08 Q1021 BLU
Loading
Personal Weather Stations






























Interactive Weather Map
Tropical Storm Tracking
New forecast layout! Learn more

10-Day Weather Forecast

Advertisements
Track Severe Weather on mobile